createdAt,value
2016-03-01T00:00:16.747Z,0
2016-03-01T00:01:16.733Z,0
2016-03-01T00:02:16.768Z,0
2016-03-01T00:03:16.755Z,0
2016-03-01T00:04:16.757Z,0
2016-03-01T00:05:16.605Z,0
2016-03-01T00:06:16.810Z,0
2016-03-01T00:07:16.781Z,0
2016-03-01T00:08:16.768Z,0
2016-03-01T00:09:16.802Z,0
2016-03-01T00:10:16.789Z,0
2016-03-01T00:11:16.792Z,0
2016-03-01T00:12:16.810Z,0
2016-03-01T00:13:16.798Z,0
2016-03-01T00:14:16.800Z,0
2016-03-01T00:15:16.850Z,0
2016-03-01T00:16:16.820Z,0
2016-03-01T00:17:16.824Z,0
2016-03-01T00:18:16.858Z,0
2016-03-01T00:19:16.845Z,0
2016-03-01T00:20:16.878Z,0
2016-03-01T00:21:16.898Z,0
2016-03-01T00:22:16.853Z,0
2016-03-01T00:23:16.887Z,0
2016-03-01T00:24:16.875Z,0
2016-03-01T00:25:16.892Z,0
2016-03-01T00:26:16.926Z,0
2016-03-01T00:27:16.913Z,0
2016-03-01T00:28:16.916Z,0
2016-03-01T00:29:16.933Z,0
2016-03-01T00:30:16.908Z,0
2016-03-01T00:31:16.958Z,0
2016-03-01T00:32:16.788Z,0
2016-03-01T00:33:16.932Z,0
2016-03-01T00:34:16.966Z,0
2016-03-01T00:35:17.000Z,0
2016-03-01T00:36:16.941Z,0
2016-03-01T00:37:16.974Z,0
2016-03-01T00:38:16.993Z,0
2016-03-01T00:39:16.963Z,0
2016-03-01T00:40:16.998Z,0
2016-03-01T00:41:17.016Z,0
2016-03-01T00:42:16.300Z,0
2016-03-01T00:43:16.849Z,0
2016-03-01T00:44:17.056Z,0
2016-03-01T00:46:18.436Z,0
2016-03-01T00:47:17.032Z,0
2016-03-01T00:48:17.035Z,0
2016-03-01T00:49:17.037Z,0
2016-03-01T00:50:17.040Z,0
2016-03-01T00:51:17.043Z,0
2016-03-01T00:52:17.065Z,0
2016-03-01T00:53:17.052Z,0
2016-03-01T00:54:17.055Z,0
2016-03-01T00:55:17.088Z,0
2016-03-01T00:56:17.076Z,0
2016-03-01T00:57:17.079Z,0
2016-03-01T00:58:17.113Z,0
2016-03-01T00:59:17.085Z,0
2016-03-01T01:00:17.102Z,0
2016-03-01T01:01:17.136Z,0
2016-03-01T01:02:17.171Z,0
2016-03-01T01:03:17.143Z,0
2016-03-01T01:04:17.145Z,0
2016-03-01T01:05:17.148Z,0
2016-03-01T01:06:17.165Z,0
2016-03-01T01:07:17.153Z,0
2016-03-01T01:08:17.140Z,0
2016-03-01T01:09:17.159Z,0
2016-03-01T01:10:17.192Z,0
2016-03-01T01:11:17.164Z,0
2016-03-01T01:12:17.181Z,0
2016-03-01T01:13:17.200Z,0
2016-03-01T01:14:17.171Z,0
2016-03-01T01:16:17.208Z,0
2016-03-01T01:17:17.195Z,0
2016-03-01T01:18:17.229Z,0
2016-03-01T01:19:17.232Z,0
2016-03-01T01:20:17.218Z,0
2016-03-01T01:21:17.238Z,0
2016-03-01T01:22:17.272Z,0
2016-03-01T01:23:17.243Z,0
2016-03-01T01:24:17.261Z,0
2016-03-01T01:25:17.310Z,0
2016-03-01T01:26:17.251Z,0
2016-03-01T01:27:17.300Z,0
2016-03-01T01:28:17.287Z,0
2016-03-01T01:29:17.274Z,0
2016-03-01T01:30:17.292Z,0
2016-03-01T01:31:17.295Z,0
2016-03-01T01:32:17.298Z,0
2016-03-01T01:33:17.301Z,0
2016-03-01T01:34:17.335Z,0
2016-03-01T01:35:17.337Z,0
2016-03-01T01:36:17.324Z,0
2016-03-01T01:37:17.326Z,0
2016-03-01T01:38:17.346Z,0
2016-03-01T01:39:17.348Z,0
2016-03-01T01:40:17.367Z,0
2016-03-01T01:41:17.354Z,0
2016-03-01T01:42:17.356Z,0
2016-03-01T01:43:17.390Z,0
2016-03-01T01:44:17.377Z,0
2016-03-01T01:45:17.380Z,0
2016-03-01T01:46:17.383Z,0
2016-03-01T01:47:17.276Z,0
2016-03-01T01:48:17.403Z,0
2016-03-01T01:49:17.406Z,0
2016-03-01T01:50:17.440Z,0
2016-03-01T01:51:17.427Z,0
2016-03-01T01:52:17.414Z,0
2016-03-01T01:53:17.464Z,0
2016-03-01T01:54:17.419Z,0
2016-03-01T01:55:17.438Z,0
2016-03-01T01:56:17.471Z,0
2016-03-01T01:57:17.444Z,0
2016-03-01T01:58:17.477Z,0
2016-03-01T01:59:17.480Z,0
2016-03-01T02:00:17.467Z,0
2016-03-01T02:01:17.470Z,0
2016-03-01T02:02:17.488Z,0
2016-03-01T02:03:17.507Z,0
2016-03-01T02:04:17.524Z,0
2016-03-01T02:05:17.527Z,0
2016-03-01T02:06:17.530Z,0
2016-03-01T02:07:17.502Z,0
2016-03-01T02:08:17.535Z,0
2016-03-01T02:09:17.538Z,0
2016-03-01T02:10:17.384Z,0
2016-03-01T02:11:17.606Z,0
2016-03-01T02:12:17.562Z,0
2016-03-01T02:13:17.549Z,0
2016-03-01T02:14:17.567Z,0
2016-03-01T02:15:17.554Z,0
2016-03-01T02:16:17.588Z,0
2016-03-01T02:17:17.591Z,0
2016-03-01T02:18:17.578Z,0
2016-03-01T02:19:17.596Z,0
2016-03-01T02:20:17.614Z,0
2016-03-01T02:21:17.582Z,0
2016-03-01T02:22:18.333Z,0
2016-03-01T02:23:18.069Z,0
2016-03-01T02:24:21.508Z,0
2016-03-01T02:25:18.276Z,0
2016-03-01T02:26:17.639Z,0
2016-03-01T02:27:17.625Z,0
2016-03-01T02:28:17.660Z,0
2016-03-01T02:29:17.647Z,0
2016-03-01T02:30:17.650Z,0
2016-03-01T02:31:17.605Z,0
2016-03-01T02:32:17.671Z,0
2016-03-01T02:33:17.688Z,0
2016-03-01T02:34:17.676Z,0
2016-03-01T02:35:17.679Z,0
2016-03-01T02:36:17.696Z,0
2016-03-01T02:37:17.684Z,0
2016-03-01T02:38:17.717Z,0
2016-03-01T02:39:17.721Z,0
2016-03-01T02:40:17.707Z,0
2016-03-01T02:41:17.726Z,0
2016-03-01T02:42:17.713Z,0
2016-03-01T02:43:17.731Z,0
2016-03-01T02:44:17.781Z,0
2016-03-01T02:45:17.736Z,0
2016-03-01T02:46:17.801Z,0
2016-03-01T02:47:17.773Z,0
2016-03-01T02:48:17.792Z,0
2016-03-01T02:49:17.763Z,0
2016-03-01T02:50:17.656Z,0
2016-03-01T02:51:17.784Z,0
2016-03-01T02:52:17.802Z,0
2016-03-01T02:53:17.836Z,0
2016-03-01T02:54:17.792Z,0
2016-03-01T02:55:17.810Z,0
2016-03-01T02:56:17.875Z,0
2016-03-01T02:57:17.816Z,0
2016-03-01T02:58:17.819Z,0
2016-03-01T02:59:17.868Z,0
2016-03-01T03:00:17.964Z,0
2016-03-01T03:01:17.873Z,0
2016-03-01T03:02:17.829Z,0
2016-03-01T03:03:17.847Z,0
2016-03-01T03:04:17.850Z,0
2016-03-01T03:05:17.884Z,0
2016-03-01T03:06:17.887Z,0
2016-03-01T03:07:17.858Z,0
2016-03-01T03:08:17.877Z,0
2016-03-01T03:09:17.879Z,0
2016-03-01T03:10:17.898Z,0
2016-03-01T03:11:17.915Z,0
2016-03-01T03:12:17.903Z,0
2016-03-01T03:13:17.968Z,0
2016-03-01T03:14:17.908Z,0
2016-03-01T03:15:38.145Z,0
2016-03-01T03:16:17.945Z,0
2016-03-01T03:17:17.931Z,0
2016-03-01T03:18:17.966Z,0
2016-03-01T03:19:17.953Z,0
2016-03-01T03:20:17.939Z,0
2016-03-01T03:21:17.958Z,0
2016-03-01T03:22:17.961Z,0
2016-03-01T03:23:17.980Z,0
2016-03-01T03:24:17.982Z,0
2016-03-01T03:25:17.986Z,0
2016-03-01T03:26:17.972Z,0
2016-03-01T03:27:17.991Z,0
2016-03-01T03:28:17.993Z,0
2016-03-01T03:29:18.011Z,0
2016-03-01T03:30:18.013Z,0
2016-03-01T03:31:18.110Z,0
2016-03-01T03:32:18.019Z,0
2016-03-01T03:33:18.022Z,0
2016-03-01T03:34:18.087Z,0
2016-03-01T03:35:18.043Z,0
2016-03-01T03:36:18.046Z,0
2016-03-01T03:37:17.970Z,0
2016-03-01T03:38:18.067Z,0
2016-03-01T03:39:18.069Z,0
2016-03-01T03:40:18.104Z,0
2016-03-01T03:41:18.090Z,0
2016-03-01T03:42:18.109Z,0
2016-03-01T03:43:18.096Z,0
2016-03-01T03:44:18.083Z,0
2016-03-01T03:45:18.132Z,0
2016-03-01T03:46:18.167Z,0
2016-03-01T03:47:18.153Z,0
2016-03-01T03:48:18.109Z,0
2016-03-01T03:49:18.158Z,0
2016-03-01T03:50:18.146Z,0
2016-03-01T03:51:18.164Z,0
2016-03-01T03:52:18.151Z,0
2016-03-01T03:53:18.169Z,0
2016-03-01T03:54:18.141Z,0
2016-03-01T03:55:18.174Z,0
2016-03-01T03:56:18.178Z,0
2016-03-01T03:57:18.197Z,0
2016-03-01T03:58:18.199Z,0
2016-03-01T03:59:18.185Z,0
2016-03-01T04:00:18.188Z,0
2016-03-01T04:01:18.222Z,0
2016-03-01T04:02:18.241Z,0
2016-03-01T04:03:18.197Z,0
2016-03-01T04:04:18.230Z,0
2016-03-01T04:05:18.249Z,0
2016-03-01T04:06:18.251Z,0
2016-03-01T04:07:18.238Z,0
2016-03-01T04:08:18.256Z,0
2016-03-01T04:09:18.244Z,0
2016-03-01T04:10:18.246Z,0
2016-03-01T04:11:18.260Z,0
2016-03-01T04:12:18.279Z,0
2016-03-01T04:13:18.296Z,0
2016-03-01T04:14:18.268Z,0
2016-03-01T04:15:18.287Z,0
2016-03-01T04:16:18.335Z,0
2016-03-01T04:17:18.292Z,0
2016-03-01T04:18:18.326Z,0
2016-03-01T04:19:18.297Z,0
2016-03-01T04:20:18.316Z,0
2016-03-01T04:21:18.349Z,0
2016-03-01T04:22:18.321Z,0
2016-03-01T04:23:18.370Z,0
2016-03-01T04:24:18.373Z,0
2016-03-01T04:25:18.329Z,0
2016-03-01T04:26:18.395Z,0
2016-03-01T04:27:18.350Z,0
2016-03-01T04:28:18.353Z,0
2016-03-01T04:29:18.402Z,0
2016-03-01T04:30:18.373Z,0
2016-03-01T04:31:18.376Z,0
2016-03-01T04:32:18.379Z,0
2016-03-01T04:33:18.398Z,0
2016-03-01T04:34:18.431Z,0
2016-03-01T04:35:18.387Z,0
2016-03-01T04:36:18.405Z,0
2016-03-01T04:37:18.439Z,0
2016-03-01T04:38:18.427Z,0
2016-03-01T04:39:18.413Z,0
2016-03-01T04:40:18.463Z,0
2016-03-01T04:41:18.432Z,0
2016-03-01T04:42:18.466Z,0
2016-03-01T04:43:18.452Z,0
2016-03-01T04:44:18.440Z,0
2016-03-01T04:45:18.458Z,0
2016-03-01T04:46:18.461Z,0
2016-03-01T04:47:18.463Z,0
2016-03-01T04:48:18.498Z,0
2016-03-01T04:49:18.484Z,0
2016-03-01T04:50:18.503Z,0
2016-03-01T04:51:18.520Z,0
2016-03-01T04:52:18.493Z,0
2016-03-01T04:53:18.495Z,0
2016-03-01T04:54:18.545Z,0
2016-03-01T04:55:18.516Z,0
2016-03-01T04:56:18.534Z,0
2016-03-01T04:57:18.553Z,0
2016-03-01T04:58:18.540Z,0
2016-03-01T04:59:18.559Z,0
2016-03-01T05:00:19.061Z,0
2016-03-01T05:01:18.564Z,0
2016-03-01T05:02:18.566Z,0
2016-03-01T05:03:18.569Z,0
2016-03-01T05:04:18.586Z,0
2016-03-01T05:05:18.575Z,0
2016-03-01T05:06:18.624Z,0
2016-03-01T05:07:18.595Z,0
2016-03-01T05:08:18.630Z,0
2016-03-01T05:09:18.616Z,0
2016-03-01T05:10:18.603Z,0
2016-03-01T05:11:18.668Z,0
2016-03-01T05:12:18.640Z,0
2016-03-01T05:13:18.611Z,0
2016-03-01T05:14:18.661Z,0
2016-03-01T05:15:18.632Z,0
2016-03-01T05:16:18.713Z,0
2016-03-01T05:17:18.701Z,0
2016-03-01T05:18:18.500Z,0
2016-03-01T05:19:18.658Z,0
2016-03-01T05:20:18.665Z,0
2016-03-01T05:21:18.656Z,0
2016-03-01T05:22:18.648Z,0
2016-03-01T05:23:18.687Z,0
2016-03-01T05:24:18.632Z,0
2016-03-01T05:25:18.646Z,0
2016-03-01T05:26:18.660Z,0
2016-03-01T05:27:18.643Z,0
2016-03-01T05:28:18.642Z,0
2016-03-01T05:29:18.624Z,0
2016-03-01T05:30:18.642Z,0
2016-03-01T05:31:18.674Z,0
2016-03-01T05:32:18.644Z,0
2016-03-01T05:33:18.676Z,0
2016-03-01T05:34:18.646Z,0
2016-03-01T05:35:18.679Z,0
2016-03-01T05:36:18.745Z,0
2016-03-01T05:37:18.684Z,0
2016-03-01T05:38:18.717Z,0
2016-03-01T05:39:18.704Z,0
2016-03-01T05:40:18.737Z,0
2016-03-01T05:41:18.725Z,0
2016-03-01T05:42:18.712Z,0
2016-03-01T05:43:18.729Z,0
2016-03-01T05:44:18.731Z,0
2016-03-01T05:45:32.862Z,0
2016-03-01T05:46:18.769Z,0
2016-03-01T05:47:18.740Z,0
2016-03-01T05:48:18.774Z,0
2016-03-01T05:49:18.745Z,0
2016-03-01T05:50:18.747Z,0
2016-03-01T05:51:18.797Z,0
2016-03-01T05:52:18.768Z,0
2016-03-01T05:53:18.787Z,0
2016-03-01T05:54:18.821Z,0
2016-03-01T05:55:18.808Z,0
2016-03-01T05:56:18.827Z,0
2016-03-01T05:57:18.688Z,0
2016-03-01T05:58:18.815Z,0
2016-03-01T05:59:18.819Z,0
2016-03-01T06:00:18.821Z,0
2016-03-01T06:01:18.824Z,0
2016-03-01T06:02:18.827Z,0
2016-03-01T06:03:18.876Z,0
2016-03-01T06:04:18.879Z,0
2016-03-01T06:05:18.851Z,0
2016-03-01T06:06:18.853Z,0
2016-03-01T06:07:18.856Z,0
2016-03-01T06:08:18.859Z,0
2016-03-01T06:09:18.892Z,0
2016-03-01T06:10:18.880Z,0
2016-03-01T06:11:18.882Z,0
2016-03-01T06:12:18.901Z,0
2016-03-01T06:13:18.888Z,0
2016-03-01T06:14:18.922Z,0
2016-03-01T06:15:33.036Z,0
2016-03-01T06:16:18.911Z,0
2016-03-01T06:17:18.914Z,0
2016-03-01T06:18:18.932Z,0
2016-03-01T06:19:18.935Z,5
2016-03-01T06:20:18.985Z,5
2016-03-01T06:21:18.941Z,5
2016-03-01T06:22:18.958Z,5
2016-03-01T06:23:18.961Z,5
2016-03-01T06:24:18.979Z,5
2016-03-01T06:25:19.046Z,5
2016-03-01T06:26:19.001Z,5
2016-03-01T06:27:19.004Z,5
2016-03-01T06:28:18.991Z,5
2016-03-01T06:29:19.009Z,5
2016-03-01T06:30:19.012Z,10
2016-03-01T06:31:18.999Z,10
2016-03-01T06:32:19.017Z,10
2016-03-01T06:33:19.004Z,10
2016-03-01T06:34:19.023Z,10
2016-03-01T06:35:19.025Z,10
2016-03-01T06:36:19.028Z,10
2016-03-01T06:37:18.889Z,10
2016-03-01T06:38:19.065Z,10
2016-03-01T06:39:19.067Z,15
2016-03-01T06:40:19.101Z,15
2016-03-01T06:41:19.056Z,15
2016-03-01T06:42:19.075Z,15
2016-03-01T06:43:19.109Z,15
2016-03-01T06:44:19.081Z,15
2016-03-01T06:45:19.145Z,15
2016-03-01T06:46:19.102Z,20
2016-03-01T06:47:19.136Z,20
2016-03-01T06:48:19.107Z,20
2016-03-01T06:49:19.110Z,20
2016-03-01T06:50:19.112Z,20
2016-03-01T06:51:19.130Z,20
2016-03-01T06:52:19.149Z,20
2016-03-01T06:53:19.151Z,20
2016-03-01T06:54:19.138Z,20
2016-03-01T06:55:19.141Z,20
2016-03-01T06:56:19.160Z,20
2016-03-01T06:57:19.163Z,20
2016-03-01T06:58:19.165Z,20
2016-03-01T06:59:19.168Z,25
2016-03-01T07:00:19.452Z,25
2016-03-01T07:01:19.204Z,25
2016-03-01T07:02:19.176Z,25
2016-03-01T07:03:19.194Z,25
2016-03-01T07:04:19.213Z,25
2016-03-01T07:05:19.199Z,25
2016-03-01T07:06:19.202Z,30
2016-03-01T07:07:19.267Z,30
2016-03-01T07:08:19.239Z,30
2016-03-01T07:09:19.226Z,30
2016-03-01T07:10:19.229Z,30
2016-03-01T07:11:19.247Z,30
2016-03-01T07:12:19.265Z,30
2016-03-01T07:13:19.267Z,30
2016-03-01T07:14:19.287Z,30
2016-03-01T07:15:39.495Z,35
2016-03-01T07:16:19.276Z,35
2016-03-01T07:17:19.325Z,35
2016-03-01T07:18:19.297Z,35
2016-03-01T07:19:19.300Z,35
2016-03-01T07:20:19.333Z,35
2016-03-01T07:21:19.305Z,40
2016-03-01T07:22:19.355Z,40
2016-03-01T07:23:19.311Z,40
2016-03-01T07:24:19.329Z,40
2016-03-01T07:25:19.363Z,40
2016-03-01T07:26:19.365Z,40
2016-03-01T07:27:19.353Z,45
2016-03-01T07:28:19.355Z,45
2016-03-01T07:29:19.374Z,45
2016-03-01T07:30:19.360Z,50
2016-03-01T07:31:19.394Z,50
2016-03-01T07:32:19.365Z,50
2016-03-01T07:33:19.384Z,50
2016-03-01T07:34:19.262Z,50
2016-03-01T07:35:19.405Z,50
2016-03-01T07:36:19.876Z,50
2016-03-01T07:37:19.301Z,50
2016-03-01T07:38:19.413Z,50
2016-03-01T07:39:19.431Z,55
2016-03-01T07:40:19.450Z,55
2016-03-01T07:41:19.421Z,55
2016-03-01T07:42:19.456Z,55
2016-03-01T07:43:19.443Z,55
2016-03-01T07:44:19.492Z,60
2016-03-01T07:45:28.528Z,60
2016-03-01T07:46:19.481Z,60
2016-03-01T07:47:19.484Z,60
2016-03-01T07:48:19.472Z,60
2016-03-01T07:49:19.506Z,60
2016-03-01T07:50:19.492Z,60
2016-03-01T07:51:19.526Z,60
2016-03-01T07:52:19.561Z,65
2016-03-01T07:53:19.578Z,65
2016-03-01T07:54:19.519Z,65
2016-03-01T07:55:19.537Z,65
2016-03-01T07:56:19.540Z,70
2016-03-01T07:57:19.543Z,70
2016-03-01T07:58:19.638Z,70
2016-03-01T07:59:19.580Z,75
2016-03-01T08:00:19.597Z,75
2016-03-01T08:01:19.568Z,75
2016-03-01T08:02:19.634Z,80
2016-03-01T08:03:19.605Z,80
2016-03-01T08:04:19.593Z,80
2016-03-01T08:05:19.626Z,85
2016-03-01T08:06:19.629Z,85
2016-03-01T08:07:19.632Z,100
2016-03-01T08:08:19.634Z,160
2016-03-01T08:09:19.637Z,235
2016-03-01T08:10:19.671Z,265
2016-03-01T08:11:19.643Z,275
2016-03-01T08:12:19.754Z,280
2016-03-01T08:13:19.679Z,285
2016-03-01T08:14:19.682Z,290
2016-03-01T08:15:19.700Z,300
2016-03-01T08:16:19.687Z,320
2016-03-01T08:17:19.705Z,315
2016-03-01T08:18:19.709Z,315
2016-03-01T08:19:19.727Z,320
2016-03-01T08:20:19.730Z,330
2016-03-01T08:21:19.748Z,330
2016-03-01T08:22:19.735Z,315
2016-03-01T08:23:19.784Z,280
2016-03-01T08:24:19.771Z,305
2016-03-01T08:25:19.805Z,325
2016-03-01T08:26:19.792Z,325
2016-03-01T08:27:19.810Z,330
2016-03-01T08:28:19.829Z,330
2016-03-01T08:29:19.832Z,335
2016-03-01T08:30:19.834Z,345
2016-03-01T08:31:19.852Z,340
2016-03-01T08:32:19.855Z,325
2016-03-01T08:33:19.874Z,325
2016-03-01T08:34:19.876Z,330
2016-03-01T08:35:19.879Z,315
2016-03-01T08:36:19.913Z,300
2016-03-01T08:37:19.963Z,320
2016-03-01T08:38:19.918Z,315
2016-03-01T08:39:19.920Z,315
2016-03-01T08:40:19.940Z,325
2016-03-01T08:41:19.957Z,330
2016-03-01T08:42:20.023Z,330
2016-03-01T08:43:19.963Z,330
2016-03-01T08:44:19.965Z,325
2016-03-01T08:45:19.984Z,325
2016-03-01T08:46:19.986Z,310
2016-03-01T08:47:20.037Z,330
2016-03-01T08:48:20.039Z,335
2016-03-01T08:49:20.025Z,325
2016-03-01T08:50:20.028Z,335
2016-03-01T08:51:20.078Z,335
2016-03-01T08:52:20.081Z,315
2016-03-01T08:53:20.084Z,265
2016-03-01T08:54:20.072Z,210
2016-03-01T08:55:20.089Z,195
2016-03-01T08:56:20.138Z,195
2016-03-01T08:57:19.970Z,180
2016-03-01T08:58:20.128Z,180
2016-03-01T08:59:20.131Z,185
2016-03-01T09:00:20.133Z,185
2016-03-01T09:01:20.183Z,185
2016-03-01T09:02:20.249Z,180
2016-03-01T09:03:20.204Z,180
2016-03-01T09:04:20.191Z,185
2016-03-01T09:05:20.194Z,185
2016-03-01T09:06:20.196Z,200
2016-03-01T09:07:20.074Z,225
2016-03-01T09:08:20.296Z,275
2016-03-01T09:09:20.220Z,330
2016-03-01T09:10:20.239Z,340
2016-03-01T09:11:20.741Z,335
2016-03-01T09:12:20.276Z,335
2016-03-01T09:13:20.262Z,340
2016-03-01T09:14:20.296Z,345
2016-03-01T09:15:20.299Z,325
2016-03-01T09:16:20.301Z,305
2016-03-01T09:17:20.367Z,250
2016-03-01T09:18:20.369Z,300
2016-03-01T09:19:20.326Z,295
2016-03-01T09:20:20.344Z,285
2016-03-01T09:21:20.347Z,285
2016-03-01T09:22:20.364Z,275
2016-03-01T09:23:20.367Z,270
2016-03-01T09:24:20.370Z,280
2016-03-01T09:25:20.388Z,280
2016-03-01T09:26:20.392Z,245
2016-03-01T09:27:20.394Z,265
2016-03-01T09:28:20.412Z,230
2016-03-01T09:29:20.415Z,250
2016-03-01T09:30:20.418Z,245
2016-03-01T09:31:20.452Z,250
2016-03-01T09:32:20.485Z,245
2016-03-01T09:33:20.472Z,240
2016-03-01T09:34:20.475Z,220
2016-03-01T09:35:20.462Z,205
2016-03-01T09:36:20.480Z,205
2016-03-01T09:37:20.515Z,205
2016-03-01T09:38:20.518Z,200
2016-03-01T09:39:20.520Z,190
2016-03-01T09:40:20.585Z,160
2016-03-01T09:41:20.541Z,135
2016-03-01T09:42:20.559Z,125
2016-03-01T09:43:20.545Z,120
2016-03-01T09:44:20.626Z,105
2016-03-01T09:45:20.551Z,105
2016-03-01T09:46:20.570Z,100
2016-03-01T09:47:20.509Z,100
2016-03-01T09:48:20.592Z,100
2016-03-01T09:49:20.578Z,105
2016-03-01T09:50:20.611Z,105
2016-03-01T09:51:20.599Z,105
2016-03-01T09:52:20.633Z,105
2016-03-01T09:53:20.619Z,100
2016-03-01T09:54:20.622Z,105
2016-03-01T09:55:20.625Z,105
2016-03-01T09:56:20.659Z,105
2016-03-01T09:57:20.646Z,100
2016-03-01T09:58:20.650Z,100
2016-03-01T09:59:20.652Z,100
2016-03-01T10:00:20.670Z,100
2016-03-01T10:01:20.532Z,100
2016-03-01T10:02:20.691Z,95
2016-03-01T10:03:20.694Z,95
2016-03-01T10:04:20.696Z,95
2016-03-01T10:05:20.762Z,95
2016-03-01T10:06:20.718Z,95
2016-03-01T10:07:20.736Z,95
2016-03-01T10:08:20.723Z,95
2016-03-01T10:09:20.726Z,95
2016-03-01T10:10:20.807Z,95
2016-03-01T10:11:20.762Z,95
2016-03-01T10:12:20.765Z,95
2016-03-01T10:13:20.768Z,95
2016-03-01T10:14:20.770Z,90
2016-03-01T10:15:20.789Z,90
2016-03-01T10:16:20.806Z,90
2016-03-01T10:17:20.684Z,90
2016-03-01T10:18:20.812Z,90
2016-03-01T10:19:20.830Z,85
2016-03-01T10:20:20.803Z,85
2016-03-01T10:21:21.367Z,85
2016-03-01T10:22:20.838Z,85
2016-03-01T10:23:20.856Z,85
2016-03-01T10:24:20.844Z,85
2016-03-01T10:25:20.862Z,85
2016-03-01T10:26:20.880Z,85
2016-03-01T10:27:20.883Z,85
2016-03-01T10:28:20.870Z,85
2016-03-01T10:29:20.888Z,80
2016-03-01T10:30:20.875Z,80
2016-03-01T10:31:20.894Z,80
2016-03-01T10:32:20.960Z,80
2016-03-01T10:33:20.930Z,80
2016-03-01T10:34:20.918Z,85
2016-03-01T10:35:20.780Z,85
2016-03-01T10:36:20.923Z,85
2016-03-01T10:37:20.957Z,85
2016-03-01T10:38:20.959Z,85
2016-03-01T10:39:20.947Z,85
2016-03-01T10:40:21.012Z,85
2016-03-01T10:41:20.952Z,85
2016-03-01T10:42:20.987Z,80
2016-03-01T10:43:20.973Z,80
2016-03-01T10:44:20.992Z,80
2016-03-01T10:45:41.232Z,80
2016-03-01T10:46:20.998Z,80
2016-03-01T10:47:21.062Z,80
2016-03-01T10:48:21.017Z,80
2016-03-01T10:49:21.068Z,80
2016-03-01T10:50:21.039Z,80
2016-03-01T10:51:21.042Z,75
2016-03-01T10:52:21.076Z,75
2016-03-01T10:53:21.062Z,75
2016-03-01T10:54:21.049Z,75
2016-03-01T10:55:21.067Z,75
2016-03-01T10:56:21.070Z,75
2016-03-01T10:57:21.105Z,75
2016-03-01T10:58:21.091Z,75
2016-03-01T10:59:21.094Z,75
2016-03-01T11:00:21.175Z,70
2016-03-01T11:01:21.115Z,70
2016-03-01T11:02:21.166Z,70
2016-03-01T11:03:21.183Z,70
2016-03-01T11:04:21.139Z,70
2016-03-01T11:05:21.141Z,65
2016-03-01T11:06:21.160Z,65
2016-03-01T11:07:21.163Z,65
2016-03-01T11:08:21.165Z,65
2016-03-01T11:09:21.184Z,60
2016-03-01T11:10:21.187Z,60
2016-03-01T11:11:21.190Z,60
2016-03-01T11:12:21.192Z,60
2016-03-01T11:13:21.210Z,60
2016-03-01T11:14:21.213Z,60
2016-03-01T11:15:52.640Z,60
2016-03-01T11:16:21.968Z,60
2016-03-01T11:17:21.284Z,60
2016-03-01T11:18:21.270Z,60
2016-03-01T11:19:21.242Z,60
2016-03-01T11:20:21.244Z,60
2016-03-01T11:21:21.248Z,60
2016-03-01T11:22:21.265Z,60
2016-03-01T11:23:21.331Z,60
2016-03-01T11:24:21.302Z,60
2016-03-01T11:25:21.273Z,55
2016-03-01T11:26:21.291Z,55
2016-03-01T11:27:21.311Z,55
2016-03-01T11:28:21.328Z,55
2016-03-01T11:29:21.316Z,50
2016-03-01T11:30:21.380Z,50
2016-03-01T11:31:21.336Z,50
2016-03-01T11:32:21.355Z,50
2016-03-01T11:33:21.419Z,50
2016-03-01T11:34:21.345Z,50
2016-03-01T11:35:21.347Z,50
2016-03-01T11:36:21.365Z,50
2016-03-01T11:37:21.384Z,50
2016-03-01T11:38:21.371Z,50
2016-03-01T11:39:21.374Z,50
2016-03-01T11:40:21.392Z,50
2016-03-01T11:41:21.410Z,50
2016-03-01T11:42:21.413Z,50
2016-03-01T11:43:21.431Z,50
2016-03-01T11:44:21.435Z,50
2016-03-01T11:45:21.437Z,45
2016-03-01T11:46:20.705Z,45
2016-03-01T11:47:21.457Z,45
2016-03-01T11:48:21.445Z,45
2016-03-01T11:49:21.463Z,45
2016-03-01T11:50:21.450Z,45
2016-03-01T11:51:21.453Z,45
2016-03-01T11:52:21.471Z,45
2016-03-01T11:53:21.489Z,45
2016-03-01T11:54:21.477Z,45
2016-03-01T11:55:21.495Z,45
2016-03-01T11:56:21.498Z,40
2016-03-01T11:57:21.500Z,40
2016-03-01T11:58:21.519Z,40
2016-03-01T11:59:21.536Z,40
2016-03-01T12:00:21.524Z,40
2016-03-01T12:01:21.541Z,40
2016-03-01T12:02:21.577Z,40
2016-03-01T12:03:21.375Z,40
2016-03-01T12:04:21.582Z,40
2016-03-01T12:05:21.569Z,40
2016-03-01T12:06:21.572Z,35
2016-03-01T12:07:21.575Z,35
2016-03-01T12:08:21.594Z,35
2016-03-01T12:09:21.596Z,35
2016-03-01T12:10:21.599Z,35
2016-03-01T12:11:21.616Z,35
2016-03-01T12:12:21.620Z,35
2016-03-01T12:13:21.622Z,35
2016-03-01T12:14:21.641Z,35
2016-03-01T12:15:21.628Z,35
2016-03-01T12:16:21.661Z,35
2016-03-01T12:17:21.649Z,35
2016-03-01T12:18:21.652Z,35
2016-03-01T12:19:21.654Z,35
2016-03-01T12:20:21.657Z,35
2016-03-01T12:21:21.690Z,35
2016-03-01T12:22:21.678Z,35
2016-03-01T12:23:21.680Z,35
2016-03-01T12:24:21.683Z,35
2016-03-01T12:25:21.702Z,35
2016-03-01T12:26:21.704Z,35
2016-03-01T12:27:21.706Z,35
2016-03-01T12:28:21.709Z,35
2016-03-01T12:29:21.728Z,35
2016-03-01T12:30:21.730Z,35
2016-03-01T12:31:21.748Z,35
2016-03-01T12:32:21.751Z,35
2016-03-01T12:33:21.739Z,35
2016-03-01T12:34:21.757Z,35
2016-03-01T12:35:21.775Z,35
2016-03-01T12:36:21.778Z,35
2016-03-01T12:37:21.764Z,35
2016-03-01T12:38:21.784Z,35
2016-03-01T12:39:21.786Z,35
2016-03-01T12:40:21.819Z,35
2016-03-01T12:41:21.823Z,35
2016-03-01T12:42:21.810Z,35
2016-03-01T12:43:21.813Z,35
2016-03-01T12:44:21.831Z,35
2016-03-01T12:45:21.850Z,35
2016-03-01T12:46:21.852Z,35
2016-03-01T12:47:21.839Z,35
2016-03-01T12:48:21.858Z,35
2016-03-01T12:49:21.891Z,35
2016-03-01T12:50:21.863Z,35
2016-03-01T12:51:21.896Z,35
2016-03-01T12:52:21.868Z,35
2016-03-01T12:53:21.902Z,35
2016-03-01T12:54:21.888Z,35
2016-03-01T12:55:21.907Z,35
2016-03-01T12:56:21.910Z,35
2016-03-01T12:57:21.929Z,35
2016-03-01T12:58:21.915Z,35
2016-03-01T12:59:21.808Z,35
2016-03-01T13:00:22.359Z,35
2016-03-01T13:01:21.939Z,35
2016-03-01T13:02:21.957Z,35
2016-03-01T13:03:21.945Z,30
2016-03-01T13:04:21.962Z,30
2016-03-01T13:05:21.981Z,30
2016-03-01T13:06:21.968Z,30
2016-03-01T13:07:21.970Z,30
2016-03-01T13:08:21.989Z,30
2016-03-01T13:09:21.836Z,30
2016-03-01T13:10:22.011Z,30
2016-03-01T13:11:21.997Z,30
2016-03-01T13:12:22.016Z,25
2016-03-01T13:13:22.033Z,25
2016-03-01T13:14:22.037Z,25
2016-03-01T13:15:42.277Z,25
2016-03-01T13:16:22.027Z,25
2016-03-01T13:17:22.076Z,25
2016-03-01T13:18:22.047Z,25
2016-03-01T13:19:22.066Z,25
2016-03-01T13:20:22.068Z,25
2016-03-01T13:21:22.119Z,25
2016-03-01T13:22:22.105Z,25
2016-03-01T13:23:22.091Z,25
2016-03-01T13:24:22.094Z,25
2016-03-01T13:25:22.097Z,25
2016-03-01T13:26:22.100Z,25
2016-03-01T13:27:22.149Z,25
2016-03-01T13:28:22.121Z,20
2016-03-01T13:29:22.154Z,20
2016-03-01T13:30:22.143Z,20
2016-03-01T13:31:22.129Z,20
2016-03-01T13:32:22.147Z,20
2016-03-01T13:33:22.151Z,20
2016-03-01T13:34:22.168Z,20
2016-03-01T13:35:22.171Z,20
2016-03-01T13:36:22.174Z,20
2016-03-01T13:37:22.192Z,20
2016-03-01T13:38:22.211Z,20
2016-03-01T13:39:22.181Z,20
2016-03-01T13:40:22.185Z,20
2016-03-01T13:41:22.047Z,20
2016-03-01T13:42:22.222Z,20
2016-03-01T13:43:22.214Z,20
2016-03-01T13:44:22.216Z,15
2016-03-01T13:45:22.234Z,15
2016-03-01T13:46:22.236Z,15
2016-03-01T13:47:22.255Z,15
2016-03-01T13:48:22.257Z,15
2016-03-01T13:49:22.245Z,15
2016-03-01T13:50:22.279Z,15
2016-03-01T13:51:22.266Z,15
2016-03-01T13:52:22.285Z,15
2016-03-01T13:53:22.318Z,15
2016-03-01T13:54:22.305Z,20
2016-03-01T13:55:22.293Z,20
2016-03-01T13:56:22.310Z,15
2016-03-01T13:57:22.313Z,20
2016-03-01T13:58:22.316Z,15
2016-03-01T13:59:22.334Z,20
2016-03-01T14:00:22.321Z,20
2016-03-01T14:01:22.371Z,20
2016-03-01T14:02:22.343Z,20
2016-03-01T14:03:22.346Z,15
2016-03-01T14:04:22.364Z,15
2016-03-01T14:05:22.350Z,15
2016-03-01T14:06:22.369Z,15
2016-03-01T14:07:22.247Z,20
2016-03-01T14:08:22.375Z,20
2016-03-01T14:09:22.392Z,20
2016-03-01T14:10:22.395Z,20
2016-03-01T14:11:22.413Z,20
2016-03-01T14:12:22.431Z,20
2016-03-01T14:13:22.419Z,20
2016-03-01T14:14:22.453Z,20
2016-03-01T14:15:22.425Z,20
2016-03-01T14:16:22.489Z,20
2016-03-01T14:17:22.430Z,20
2016-03-01T14:18:22.479Z,15
2016-03-01T14:19:22.466Z,15
2016-03-01T14:20:22.469Z,15
2016-03-01T14:21:22.455Z,15
2016-03-01T14:22:22.522Z,15
2016-03-01T14:23:22.478Z,15
2016-03-01T14:24:22.480Z,15
2016-03-01T14:25:22.494Z,15
2016-03-01T14:26:22.498Z,15
2016-03-01T14:27:22.504Z,15